Boothbay, Maine
Current Conditions -  °F | °C
As of 4:11 AM on Sunday 26 Oct 2014 (Local Time) from KIWI Reporting Station
Haze Haze  
Wind Chill: 44°   Ceiling: Unl
Heat Index: 44°   Visibility: 3mi
Dew Point: 43°   Wind: 3mph
Humidity: 96%   Direction: 80°E
Pressure: 29.4"   Gusts: NA
Location:  43.88°N, 69.63°W
Report Text: KIWI 260811Z AUTO 08003KT 3SM BR FEW002 07/06 A2940 RMK AO2 T00670061
Loading
Personal Weather Stations






























Interactive Weather Map
Tropical Storm Tracking
New forecast layout! Learn more

10-Day Weather Forecast

Advertisements
Track Severe Weather on mobile